Time;durP1;ratioP1;P1;durP2;ratioP2;P2;SDS_P1;SDS_P2;PMS_P1;PMS_P2;Temp;Humidity;BMP_temperature;BMP_pressure;BME280_temperature;BME280_humidity;BME280_pressure;Samples;Min_cycle;Max_cycle;Signal;HPM_P1;HPM_P2
2023/07/11 00:00:56;;;;;;;;;;;;;;;24.75;43.91;101564.94;5141210;27;20356;-60
2023/07/11 00:03:25;;;;;;;;;;;;;;;24.73;44.18;101561.66;5143517;27;19955;-60
2023/07/11 00:05:58;;;;;;;;;;;;;;;24.71;44.30;101561.16;5148742;27;19927;-60
2023/07/11 00:08:26;;;;;;;;;;;;;;;24.68;44.29;101557.06;5138266;27;19919;-60
2023/07/11 00:10:54;;;;;;;;;;;;;;;24.67;44.10;101553.50;5138450;27;19919;-60
2023/07/11 00:13:22;;;;;;;;;;;;;;;24.64;44.30;101551.34;5146405;27;20203;-60
2023/07/11 00:15:56;;;;;;;;;;;;;;;24.63;44.48;101548.91;5147511;27;19919;-59
2023/07/11 00:18:25;;;;;;;;;;;;;;;24.61;44.57;101556.63;5142924;27;19919;-59
2023/07/11 00:20:53;;;;;;;;;;;;;;;24.59;44.58;101543.19;5142962;27;19919;-60
2023/07/11 00:23:20;;;;;;;;;;;;;;;24.57;44.70;101541.84;5137799;27;19972;-60
2023/07/11 00:25:48;;;;;;;;;;;;;;;24.54;44.81;101542.44;5148225;27;19919;-60
2023/07/11 00:28:16;;;;;;;;;;;;;;;24.52;44.51;101545.50;5143561;27;20000;-60
2023/07/11 00:30:43;;;;;;;;;;;;;;;24.50;44.69;101542.22;5145353;27;19919;-60
2023/07/11 00:33:11;;;;;;;;;;;;;;;24.49;44.77;101540.59;5137654;27;19999;-61
2023/07/11 00:35:40;;;;;;;;;;;;;;;24.48;44.80;101538.13;5141150;27;19919;-60
2023/07/11 00:38:08;;;;;;;;;;;;;;;24.46;44.89;101534.88;5139421;27;20033;-60
2023/07/11 00:40:41;;;;;;;;;;;;;;;24.43;44.90;101536.28;5139658;27;20003;-60
2023/07/11 00:43:10;;;;;;;;;;;;;;;24.42;44.72;101531.91;5142562;27;19926;-60
2023/07/11 00:46:08;;;;;;;;;;;;;;;24.39;44.71;101529.75;5137879;27;19941;-60
2023/07/11 00:48:38;;;;;;;;;;;;;;;24.36;44.88;101524.84;5062263;28;19963;-60
2023/07/11 00:51:08;;;;;;;;;;;;;;;24.34;44.78;101533.38;5059800;28;19920;-60
2023/07/11 00:53:39;;;;;;;;;;;;;;;24.33;45.18;101536.44;5052530;28;19921;-60
2023/07/11 00:56:09;;;;;;;;;;;;;;;24.31;45.05;101533.16;5047566;28;19956;-60
2023/07/11 00:58:39;;;;;;;;;;;;;;;24.28;45.04;101531.84;5060253;28;19956;-60
2023/07/11 01:01:07;;;;;;;;;;;;;;;24.27;45.00;101543.13;5056147;28;19951;-60
2023/07/11 01:03:35;;;;;;;;;;;;;;;24.23;44.94;101531.91;5060163;28;19920;-60
2023/07/11 01:06:03;;;;;;;;;;;;;;;24.23;45.26;101531.09;5058253;28;19930;-60
2023/07/11 01:08:32;;;;;;;;;;;;;;;24.21;45.04;101533.31;5052918;28;19921;-60
2023/07/11 01:11:00;;;;;;;;;;;;;;;24.18;45.28;101537.47;5047752;28;19925;-60
2023/07/11 01:13:27;;;;;;;;;;;;;;;24.18;45.24;101529.22;5056710;28;19921;-59
2023/07/11 01:15:55;;;;;;;;;;;;;;;24.17;45.48;101524.03;5054156;28;20285;-60
2023/07/11 01:18:23;;;;;;;;;;;;;;;24.16;45.46;101520.47;5055433;28;19921;-59
2023/07/11 01:20:50;;;;;;;;;;;;;;;24.14;45.06;101525.44;5057257;28;19990;-59
2023/07/11 01:23:20;;;;;;;;;;;;;;;24.12;45.37;101524.09;5111492;27;19919;-60
2023/07/11 01:25:48;;;;;;;;;;;;;;;24.11;45.46;101523.28;5141083;27;19919;-61
2023/07/11 01:28:15;;;;;;;;;;;;;;;24.10;45.31;101518.91;5132181;27;20012;-60
2023/07/11 01:30:43;;;;;;;;;;;;;;;24.09;45.62;101519.22;5136503;27;19919;-59
2023/07/11 01:33:10;;;;;;;;;;;;;;;24.08;45.56;101515.66;5138163;27;19938;-60
2023/07/11 01:35:38;;;;;;;;;;;;;;;24.07;45.42;101518.69;5141062;27;19929;-59
2023/07/11 01:38:06;;;;;;;;;;;;;;;24.05;45.73;101513.50;5137159;27;19919;-59
2023/07/11 01:40:35;;;;;;;;;;;;;;;24.04;45.43;101502.81;5139415;27;19919;-60
2023/07/11 01:43:02;;;;;;;;;;;;;;;24.02;45.83;101505.84;5142787;27;20014;-60
2023/07/11 01:45:30;;;;;;;;;;;;;;;24.00;45.58;101495.16;5139348;27;19930;-59
2023/07/11 01:47:58;;;;;;;;;;;;;;;23.99;45.55;101499.00;5142589;27;19941;-60
2023/07/11 01:50:25;;;;;;;;;;;;;;;23.98;45.94;101496.56;5145359;27;19932;-60
2023/07/11 01:52:53;;;;;;;;;;;;;;;23.95;45.87;101497.97;5137675;27;19919;-60
2023/07/11 01:55:20;;;;;;;;;;;;;;;23.94;45.68;101501.00;5140954;27;19934;-59
2023/07/11 01:57:49;;;;;;;;;;;;;;;23.92;45.77;101489.50;5135431;27;19929;-60
2023/07/11 02:00:17;;;;;;;;;;;;;;;23.90;45.95;101484.31;5142142;27;19956;-60
2023/07/11 02:02:45;;;;;;;;;;;;;;;23.89;45.84;101493.66;5138455;27;19972;-61
2023/07/11 02:05:14;;;;;;;;;;;;;;;23.87;45.87;101482.16;5132589;27;19923;-60
2023/07/11 02:07:41;;;;;;;;;;;;;;;23.86;46.34;101483.28;5143085;27;20291;-60
2023/07/11 02:10:09;;;;;;;;;;;;;;;23.84;46.30;101476.44;5142573;27;19919;-59
2023/07/11 02:12:37;;;;;;;;;;;;;;;23.81;46.59;101472.34;5135781;27;20307;-60
2023/07/11 02:15:06;;;;;;;;;;;;;;;23.79;46.56;101482.81;5142317;27;19930;-60
2023/07/11 02:17:34;;;;;;;;;;;;;;;23.77;46.41;101476.00;5128292;27;19919;-60
2023/07/11 02:20:02;;;;;;;;;;;;;;;23.76;46.29;101477.91;5141735;27;19958;-60
2023/07/11 02:22:30;;;;;;;;;;;;;;;23.72;46.52;101471.38;5137611;27;19927;-59
2023/07/11 02:24:57;;;;;;;;;;;;;;;23.71;46.42;101463.44;5143842;27;19996;-60
2023/07/11 02:27:25;;;;;;;;;;;;;;;23.67;46.46;101463.22;5133811;27;19919;-60
2023/07/11 02:29:52;;;;;;;;;;;;;;;23.66;46.63;101458.84;5135576;27;19923;-59
2023/07/11 02:32:21;;;;;;;;;;;;;;;23.64;46.49;101453.66;5143707;27;19924;-60
2023/07/11 02:34:49;;;;;;;;;;;;;;;23.62;46.65;101450.38;5139067;27;19927;-59
2023/07/11 02:37:16;;;;;;;;;;;;;;;23.60;46.76;101443.56;5132697;27;19949;-59
2023/07/11 02:39:44;;;;;;;;;;;;;;;23.58;46.50;101443.84;5141509;27;20365;-60
2023/07/11 02:42:12;;;;;;;;;;;;;;;23.49;46.80;101422.81;5140780;27;19964;-60
2023/07/11 02:44:39;;;;;;;;;;;;;;;23.53;46.64;101441.13;5134265;27;19942;-60
2023/07/11 02:47:07;;;;;;;;;;;;;;;23.53;46.73;101434.84;5140834;27;19919;-60
2023/07/11 02:49:38;;;;;;;;;;;;;;;23.50;47.05;101430.75;5138834;27;19919;-60
2023/07/11 02:52:06;;;;;;;;;;;;;;;23.49;46.77;101431.88;5143605;27;19919;-60
2023/07/11 02:54:36;;;;;;;;;;;;;;;23.48;46.82;101427.47;5137583;27;20018;-59
2023/07/11 02:57:05;;;;;;;;;;;;;;;23.47;47.10;101427.78;5134451;27;19938;-59
2023/07/11 02:59:33;;;;;;;;;;;;;;;23.45;46.85;101421.78;5142296;27;19934;-59
2023/07/11 03:02:01;;;;;;;;;;;;;;;23.43;47.15;101422.06;5130088;27;20067;-59
2023/07/11 03:04:28;;;;;;;;;;;;;;;23.41;47.01;101416.06;5131700;27;20282;-60
2023/07/11 03:06:58;;;;;;;;;;;;;;;23.39;46.88;101415.53;5139493;27;19919;-59
2023/07/11 03:09:26;;;;;;;;;;;;;;;23.38;46.98;101414.72;5133499;27;19920;-60
2023/07/11 03:11:54;;;;;;;;;;;;;;;23.38;47.11;101411.16;5134708;27;20426;-60
2023/07/11 03:14:22;;;;;;;;;;;;;;;23.36;47.11;101408.69;5141789;27;19964;-60
2023/07/11 03:16:50;;;;;;;;;;;;;;;23.35;47.18;101409.81;5135563;27;19995;-60
2023/07/11 03:19:18;;;;;;;;;;;;;;;23.34;47.37;101399.13;5144810;27;20010;-59
2023/07/11 03:21:46;;;;;;;;;;;;;;;23.32;47.23;101402.19;5139370;27;19920;-60
2023/07/11 03:24:15;;;;;;;;;;;;;;;23.31;47.07;101402.47;5142504;27;19952;-60
2023/07/11 03:26:45;;;;;;;;;;;;;;;23.30;47.09;101396.16;5136428;27;19988;-61
2023/07/11 03:29:13;;;;;;;;;;;;;;;23.29;47.15;101391.78;5143722;27;19931;-60
2023/07/11 03:31:41;;;;;;;;;;;;;;;23.28;47.04;101383.84;5132421;27;19966;-60
2023/07/11 03:34:09;;;;;;;;;;;;;;;23.27;47.00;101388.53;5144622;27;19919;-60
2023/07/11 03:36:36;;;;;;;;;;;;;;;23.25;46.78;101387.19;5141375;27;19940;-59
2023/07/11 03:39:04;;;;;;;;;;;;;;;23.24;46.88;101389.09;5138485;27;19924;-60
2023/07/11 03:41:33;;;;;;;;;;;;;;;23.22;47.01;101388.59;5145067;27;19919;-60
2023/07/11 03:44:01;;;;;;;;;;;;;;;23.21;46.95;101386.13;5144231;27;20332;-59
2023/07/11 03:46:28;;;;;;;;;;;;;;;23.19;46.75;101389.16;5129469;27;20669;-60
2023/07/11 03:48:58;;;;;;;;;;;;;;;23.18;46.73;101390.28;5138864;27;19926;-60
2023/07/11 03:51:26;;;;;;;;;;;;;;;23.18;47.10;101383.97;5144150;27;19988;-59
2023/07/11 03:53:54;;;;;;;;;;;;;;;23.15;47.11;101379.91;5143723;27;19923;-59
2023/07/11 03:56:21;;;;;;;;;;;;;;;23.14;47.04;101380.19;5141529;27;19923;-60
2023/07/11 03:58:50;;;;;;;;;;;;;;;23.14;46.87;101389.25;5137519;27;19923;-60
2023/07/11 04:01:18;;;;;;;;;;;;;;;23.13;47.07;101384.03;5133731;27;19919;-60
2023/07/11 04:03:45;;;;;;;;;;;;;;;23.10;47.08;101379.97;5144738;27;19974;-60
2023/07/11 04:06:13;;;;;;;;;;;;;;;23.10;47.26;101379.16;5136546;27;19924;-59
2023/07/11 04:08:41;;;;;;;;;;;;;;;23.07;46.96;101372.31;5144074;27;19919;-60
2023/07/11 04:11:09;;;;;;;;;;;;;;;22.97;47.19;101359.56;5144069;27;19931;-60
2023/07/11 04:13:36;;;;;;;;;;;;;;;23.04;46.99;101376.47;5146652;27;19919;-60
2023/07/11 04:16:06;;;;;;;;;;;;;;;23.02;47.00;101364.16;5133422;27;19966;-60
2023/07/11 04:18:34;;;;;;;;;;;;;;;23.01;47.12;101371.56;5139662;27;19979;-60
2023/07/11 04:21:01;;;;;;;;;;;;;;;23.00;46.96;101366.38;5138106;27;20372;-59
2023/07/11 04:23:29;;;;;;;;;;;;;;;22.99;47.19;101367.47;5144673;27;19919;-59
2023/07/11 04:25:56;;;;;;;;;;;;;;;22.96;47.26;101366.13;5133774;27;19953;-59
2023/07/11 04:28:24;;;;;;;;;;;;;;;22.94;47.05;101362.06;5136314;27;19923;-60
2023/07/11 04:30:52;;;;;;;;;;;;;;;22.92;47.11;101356.88;5142209;27;19978;-62
2023/07/11 04:33:21;;;;;;;;;;;;;;;22.92;47.11;101350.56;5146790;27;19951;-62
2023/07/11 04:35:48;;;;;;;;;;;;;;;22.90;47.35;101355.53;5138611;27;19926;-62
2023/07/11 04:38:16;;;;;;;;;;;;;;;22.89;47.10;101351.97;5142223;27;19923;-61
2023/07/11 04:40:45;;;;;;;;;;;;;;;22.88;47.11;101346.78;5137575;27;19923;-60
2023/07/11 04:43:13;;;;;;;;;;;;;;;22.85;47.09;101352.84;5150462;27;20297;-60
2023/07/11 04:45:40;;;;;;;;;;;;;;;22.85;46.88;101342.69;5147547;27;19950;-60
2023/07/11 04:48:08;;;;;;;;;;;;;;;22.83;47.07;101344.91;5143645;27;19923;-60
2023/07/11 04:50:37;;;;;;;;;;;;;;;22.84;47.33;101346.53;5146964;27;20117;-60
2023/07/11 04:53:04;;;;;;;;;;;;;;;22.84;47.08;101340.25;5135856;27;19920;-60
2023/07/11 04:55:32;;;;;;;;;;;;;;;22.81;46.82;101336.16;5142246;27;19923;-61
2023/07/11 04:58:00;;;;;;;;;;;;;;;22.82;47.20;101336.97;5138553;27;19977;-60
2023/07/11 05:00:27;;;;;;;;;;;;;;;22.81;47.02;101332.59;5142896;27;19927;-60
2023/07/11 05:02:57;;;;;;;;;;;;;;;22.82;47.10;101328.75;5140601;27;19919;-59
2023/07/11 05:05:25;;;;;;;;;;;;;;;22.81;47.10;101325.19;5135693;27;20003;-59
2023/07/11 05:07:53;;;;;;;;;;;;;;;22.82;46.98;101328.75;5135508;27;19940;-60
2023/07/11 05:10:21;;;;;;;;;;;;;;;22.82;46.95;101321.34;5143446;27;19927;-60
2023/07/11 05:12:49;;;;;;;;;;;;;;;22.83;46.91;101317.50;5133758;27;19919;-58
2023/07/11 05:15:16;;;;;;;;;;;;;;;22.86;47.28;101310.63;5136010;27;20206;-59
2023/07/11 05:17:44;;;;;;;;;;;;;;;22.87;47.06;101310.34;5138573;27;19919;-62
2023/07/11 05:20:12;;;;;;;;;;;;;;;22.90;47.51;101307.00;5138672;27;19962;-60
2023/07/11 05:22:40;;;;;;;;;;;;;;;22.93;47.14;101322.06;5134659;27;20059;-61
2023/07/11 05:25:09;;;;;;;;;;;;;;;22.95;47.22;101306.13;5144299;27;19927;-60
2023/07/11 05:27:37;;;;;;;;;;;;;;;22.98;47.49;101302.78;5133543;27;19919;-61
2023/07/11 05:30:12;;;;;;;;;;;;;;;23.00;47.41;101303.31;5002341;27;10000005;-60
2023/07/11 05:32:40;;;;;;;;;;;;;;;23.01;47.21;101308.50;5135742;27;19919;-62
2023/07/11 05:35:08;;;;;;;;;;;;;;;23.04;47.22;101302.44;5144315;27;19919;-61
2023/07/11 05:37:36;;;;;;;;;;;;;;;23.07;47.20;101303.78;5142480;27;19927;-61
2023/07/11 05:40:04;;;;;;;;;;;;;;;23.09;47.37;101300.75;5141673;27;19949;-62
2023/07/11 05:42:33;;;;;;;;;;;;;;;23.10;47.23;101296.88;5134438;27;19919;-60
2023/07/11 05:45:00;;;;;;;;;;;;;;;23.12;47.68;101303.72;5131535;27;19941;-59
2023/07/11 05:47:28;;;;;;;;;;;;;;;23.14;47.31;101301.50;5141772;27;19924;-59
2023/07/11 05:49:55;;;;;;;;;;;;;;;23.17;47.65;101302.81;5136040;27;19923;-59
2023/07/11 05:52:23;;;;;;;;;;;;;;;23.20;47.79;101294.00;5138506;27;19924;-58
2023/07/11 05:54:51;;;;;;;;;;;;;;;23.21;47.48;101290.97;5135018;27;19923;-58
2023/07/11 05:57:18;;;;;;;;;;;;;;;23.23;47.53;101293.41;5144104;27;20289;-59
2023/07/11 05:59:47;;;;;;;;;;;;;;;23.24;48.32;101287.63;5142265;27;19923;-59
2023/07/11 06:02:15;;;;;;;;;;;;;;;23.27;48.17;101292.53;5139395;27;19964;-59
2023/07/11 06:04:42;;;;;;;;;;;;;;;23.31;48.33;101290.00;5144717;27;19965;-60
2023/07/11 06:07:10;;;;;;;;;;;;;;;23.34;48.38;101286.66;5144620;27;19968;-59
2023/07/11 06:09:37;;;;;;;;;;;;;;;23.36;48.94;101277.03;5139914;27;19919;-59
2023/07/11 06:12:05;;;;;;;;;;;;;;;23.39;47.76;101270.13;5136952;27;19984;-60
2023/07/11 06:14:34;;;;;;;;;;;;;;;23.41;48.29;101275.34;5136387;27;19934;-60
2023/07/11 06:17:03;;;;;;;;;;;;;;;23.42;47.83;101274.22;5129155;27;20433;-59
2023/07/11 06:19:31;;;;;;;;;;;;;;;23.47;48.34;101274.13;5128905;27;19990;-59
2023/07/11 06:21:59;;;;;;;;;;;;;;;23.50;48.97;101260.63;5143525;27;19935;-60
2023/07/11 06:24:27;;;;;;;;;;;;;;;23.56;47.76;101266.91;5135992;27;19995;-59
2023/07/11 06:26:54;;;;;;;;;;;;;;;23.55;47.55;101260.59;5141716;27;19957;-59
2023/07/11 06:29:22;;;;;;;;;;;;;;;23.74;48.31;101262.50;5142456;27;19964;-58
2023/07/11 06:31:49;;;;;;;;;;;;;;;23.80;47.46;101264.84;5143145;27;19919;-59
2023/07/11 06:34:18;;;;;;;;;;;;;;;23.84;47.43;101257.66;5124083;27;20010;-59
2023/07/11 06:36:46;;;;;;;;;;;;;;;23.82;47.41;101265.38;5134382;27;19924;-63
2023/07/11 06:39:14;;;;;;;;;;;;;;;23.79;47.70;101263.22;5132641;27;19972;-59
2023/07/11 06:41:41;;;;;;;;;;;;;;;23.75;47.11;101270.44;5130217;27;20333;-59
2023/07/11 06:44:09;;;;;;;;;;;;;;;23.72;47.31;101271.03;5140702;27;19920;-59
2023/07/11 06:46:37;;;;;;;;;;;;;;;23.66;47.78;101256.56;5135639;27;19931;-59
2023/07/11 06:49:04;;;;;;;;;;;;;;;23.63;47.55;101259.91;5135762;27;20291;-58
2023/07/11 06:51:34;;;;;;;;;;;;;;;23.60;47.68;101262.44;5144413;27;19923;-59
2023/07/11 06:54:02;;;;;;;;;;;;;;;23.56;47.85;101258.66;5136398;28;19919;-58
2023/07/11 06:56:29;;;;;;;;;;;;;;;23.54;47.89;101256.22;5139265;27;19919;-58
2023/07/11 06:58:57;;;;;;;;;;;;;;;23.53;47.92;101259.22;5128820;28;19995;-59
2023/07/11 07:01:25;;;;;;;;;;;;;;;23.50;47.70;101257.91;5131785;27;19931;-59
2023/07/11 07:04:05;;;;;;;;;;;;;;;23.49;47.66;101252.72;5138483;28;19919;-59
2023/07/11 07:06:35;;;;;;;;;;;;;;;23.48;47.63;101254.63;5141305;27;19984;-59
2023/07/11 07:09:03;;;;;;;;;;;;;;;23.46;47.79;101251.38;5135013;27;19972;-59
2023/07/11 07:11:31;;;;;;;;;;;;;;;23.46;47.75;101250.56;5143740;27;19920;-59
2023/07/11 07:13:58;;;;;;;;;;;;;;;23.45;48.10;101254.41;5136904;27;19957;-59
2023/07/11 07:16:33;;;;;;;;;;;;;;;23.44;48.15;101241.81;5127634;27;19936;-59
2023/07/11 07:19:01;;;;;;;;;;;;;;;23.44;47.92;101250.03;5141654;27;19952;-59
2023/07/11 07:21:28;;;;;;;;;;;;;;;23.45;48.21;101248.94;5143665;27;19927;-58
2023/07/11 07:23:57;;;;;;;;;;;;;;;23.44;47.71;101245.38;5139097;28;19946;-58
2023/07/11 07:26:25;;;;;;;;;;;;;;;23.43;48.10;101251.97;5134196;27;19926;-59
2023/07/11 07:28:53;;;;;;;;;;;;;;;23.44;48.02;101250.84;5138048;27;19923;-59
2023/07/11 07:31:20;;;;;;;;;;;;;;;23.43;47.61;101248.41;5147797;27;19919;-59
2023/07/11 07:33:48;;;;;;;;;;;;;;;23.42;47.96;101242.09;5141095;27;19938;-59
2023/07/11 07:36:15;;;;;;;;;;;;;;;23.42;47.72;101242.09;5137307;27;20015;-59
2023/07/11 07:38:43;;;;;;;;;;;;;;;23.43;47.82;101242.94;5145794;27;19920;-59
2023/07/11 07:41:12;;;;;;;;;;;;;;;23.44;47.68;101237.16;5138063;27;19942;-59
2023/07/11 07:43:40;;;;;;;;;;;;;;;23.45;47.60;101243.44;5141661;27;19941;-59
2023/07/11 07:46:07;;;;;;;;;;;;;;;23.45;47.63;101236.03;5138907;27;20011;-59
2023/07/11 07:48:35;;;;;;;;;;;;;;;23.47;47.82;101233.00;5142761;27;19964;-59
2023/07/11 07:51:03;;;;;;;;;;;;;;;23.47;47.51;101222.00;5145620;27;19920;-60
2023/07/11 07:53:32;;;;;;;;;;;;;;;23.49;47.60;101228.00;5148540;27;19923;-59
2023/07/11 07:56:03;;;;;;;;;;;;;;;23.49;47.57;101220.59;5144713;27;19926;-59
2023/07/11 07:58:33;;;;;;;;;;;;;;;23.51;47.65;101226.59;5136387;27;19934;-59
2023/07/11 08:01:10;;;;;;;;;;;;;;;23.53;47.60;101223.56;5134482;27;19986;-58
2023/07/11 08:03:37;;;;;;;;;;;;;;;23.54;47.54;101219.72;5140944;27;19920;-59
2023/07/11 08:06:05;;;;;;;;;;;;;;;23.55;47.66;101222.19;5132644;27;20017;-59
2023/07/11 08:08:43;;;;;;;;;;;;;;;23.57;47.51;101210.91;5145498;27;19994;-59
2023/07/11 08:11:11;;;;;;;;;;;;;;;23.58;47.56;101209.78;5139083;27;19920;-58
2023/07/11 08:13:40;;;;;;;;;;;;;;;23.61;46.93;101212.75;5135169;27;19931;-60
2023/07/11 08:16:27;;;;;;;;;;;;;;;23.64;47.56;101214.88;5134751;27;19926;-59
2023/07/11 08:18:59;;;;;;;;;;;;;;;23.65;47.25;101204.72;5137022;27;19923;-59
2023/07/11 08:21:27;;;;;;;;;;;;;;;23.65;46.92;101207.47;5147825;27;19928;-58
2023/07/11 08:23:55;;;;;;;;;;;;;;;23.66;47.26;101203.63;5142390;27;19919;-59
2023/07/11 08:26:23;;;;;;;;;;;;;;;23.66;47.06;101204.44;5138121;27;19919;-60
2023/07/11 08:28:52;;;;;;;;;;;;;;;23.68;47.13;101207.69;5145201;27;19941;-58
2023/07/11 08:31:20;;;;;;;;;;;;;;;23.70;47.01;101204.63;5134535;27;19923;-59
2023/07/11 08:33:48;;;;;;;;;;;;;;;23.72;47.23;101212.56;5142198;27;20337;-59
2023/07/11 08:36:16;;;;;;;;;;;;;;;23.73;46.83;101204.03;5140625;27;19935;-58
2023/07/11 08:38:45;;;;;;;;;;;;;;;23.75;46.94;101203.75;5146524;27;19980;-59
2023/07/11 08:41:18;;;;;;;;;;;;;;;23.76;47.06;101200.69;5141652;27;19927;-59
2023/07/11 08:43:47;;;;;;;;;;;;;;;23.77;47.35;101198.75;5139684;27;19934;-58
2023/07/11 08:46:17;;;;;;;;;;;;;;;23.79;47.28;101197.34;5145808;27;19927;-59
2023/07/11 08:48:48;;;;;;;;;;;;;;;23.80;46.93;101196.22;5144998;27;19983;-58
2023/07/11 08:51:22;;;;;;;;;;;;;;;23.83;46.95;101189.31;5142790;27;19934;-59
2023/07/11 08:53:52;;;;;;;;;;;;;;;23.85;46.72;101184.34;5142766;27;19919;-61
2023/07/11 08:56:22;;;;;;;;;;;;;;;23.87;46.97;101195.84;5136066;27;19922;-60
2023/07/11 08:58:51;;;;;;;;;;;;;;;23.88;46.53;101198.28;5139228;27;19972;-60
2023/07/11 09:01:40;;;;;;;;;;;;;;;23.89;46.95;101190.84;5136514;27;19919;-59
2023/07/11 09:04:10;;;;;;;;;;;;;;;23.92;47.13;101187.50;5129172;27;20613;-59
2023/07/11 09:06:44;;;;;;;;;;;;;;;23.96;47.29;101188.53;5136803;27;19941;-60
2023/07/11 09:09:12;;;;;;;;;;;;;;;23.97;47.48;101185.47;5144495;27;19941;-59
2023/07/11 09:11:42;;;;;;;;;;;;;;;23.99;47.15;101185.16;5136644;27;19972;-60
2023/07/11 09:14:18;;;;;;;;;;;;;;;24.01;47.11;101180.19;5145161;27;19919;-59
2023/07/11 09:16:51;;;;;;;;;;;;;;;24.04;47.06;101173.28;5134353;27;19920;-59
2023/07/11 09:19:32;;;;;;;;;;;;;;;24.05;47.28;101170.22;5140930;27;20014;-60
2023/07/11 09:22:05;;;;;;;;;;;;;;;24.08;47.73;101177.84;5147161;27;19976;-60
2023/07/11 09:24:37;;;;;;;;;;;;;;;24.11;47.69;101169.00;5135842;27;19919;-59
2023/07/11 09:27:09;;;;;;;;;;;;;;;24.13;47.45;101175.00;5140547;27;19968;-60
2023/07/11 09:29:37;;;;;;;;;;;;;;;24.15;47.92;101164.53;5141512;27;19919;-60
2023/07/11 09:32:06;;;;;;;;;;;;;;;24.16;47.68;101170.84;5132624;27;19961;-60
2023/07/11 09:34:37;;;;;;;;;;;;;;;24.18;47.32;101163.13;5139836;27;19955;-60
2023/07/11 09:37:15;;;;;;;;;;;;;;;24.20;47.05;101174.59;5140501;27;19965;-59
2023/07/11 09:39:48;;;;;;;;;;;;;;;24.22;47.38;101169.63;5129020;27;19929;-59
2023/07/11 09:42:21;;;;;;;;;;;;;;;24.23;47.18;101161.06;5132519;27;19957;-59
2023/07/11 09:44:59;;;;;;;;;;;;;;;24.25;47.31;101171.75;5139002;27;19927;-60
2023/07/11 09:47:30;;;;;;;;;;;;;;;24.30;47.29;101166.16;5134323;27;19941;-60
2023/07/11 09:50:05;;;;;;;;;;;;;;;24.33;47.18;101162.81;5143038;27;19919;-60
2023/07/11 09:52:33;;;;;;;;;;;;;;;24.37;47.36;101163.00;5139592;27;19920;-60
2023/07/11 09:55:01;;;;;;;;;;;;;;;24.40;47.23;101160.47;5133530;27;19919;-60
2023/07/11 09:57:36;;;;;;;;;;;;;;;24.45;47.32;101162.28;5131257;27;19923;-60
2023/07/11 10:00:05;;;;;;;;;;;;;;;24.49;47.41;101158.63;5136400;27;19934;-60
2023/07/11 10:02:49;;;;;;;;;;;;;;;24.53;47.52;101156.06;5142743;27;20024;-59
2023/07/11 10:05:18;;;;;;;;;;;;;;;24.60;47.39;101156.47;5143462;27;19990;-60
2023/07/11 10:07:47;;;;;;;;;;;;;;;24.63;47.39;101155.84;5145904;27;20276;-60
2023/07/11 10:10:15;;;;;;;;;;;;;;;24.65;47.44;101150.84;5135265;27;20030;-60
2023/07/11 10:12:45;;;;;;;;;;;;;;;24.69;47.36;101151.03;5130560;27;20360;-60
2023/07/11 10:15:15;;;;;;;;;;;;;;;24.73;47.39;101141.88;5137802;27;20056;-60
2023/07/11 10:17:44;;;;;;;;;;;;;;;24.78;47.43;101133.50;5144976;27;19980;-60
2023/07/11 10:20:15;;;;;;;;;;;;;;;24.82;47.51;101139.19;5143477;27;19924;-60
2023/07/11 10:22:49;;;;;;;;;;;;;;;24.86;47.18;101132.78;5140116;27;19946;-60
2023/07/11 10:25:19;;;;;;;;;;;;;;;24.86;47.15;101132.78;5141607;27;20506;-60
2023/07/11 10:27:52;;;;;;;;;;;;;;;24.87;47.05;101131.66;5133323;27;20291;-60
2023/07/11 10:30:25;;;;;;;;;;;;;;;24.89;47.02;101125.84;5128029;27;19970;-60
2023/07/11 10:32:57;;;;;;;;;;;;;;;24.91;47.05;101121.66;5131654;27;19949;-60
2023/07/11 10:35:48;;;;;;;;;;;;;;;24.96;47.23;101117.97;5133906;27;20006;-60
2023/07/11 10:38:19;;;;;;;;;;;;;;;25.01;47.11;101119.81;5142139;27;19934;-60
2023/07/11 10:40:49;;;;;;;;;;;;;;;25.05;47.37;101110.63;5134606;27;19950;-60
2023/07/11 10:43:22;;;;;;;;;;;;;;;25.09;47.04;101100.63;5135629;27;19919;-60
2023/07/11 10:45:53;;;;;;;;;;;;;;;25.13;47.13;101107.13;5140128;27;19923;-60
2023/07/11 10:48:26;;;;;;;;;;;;;;;25.15;46.91;101104.06;5152755;27;19918;-60
2023/07/11 10:50:56;;;;;;;;;;;;;;;25.17;47.04;101107.31;5135655;27;19938;-60
2023/07/11 10:53:27;;;;;;;;;;;;;;;25.18;46.88;101101.50;5127561;27;19942;-60
2023/07/11 10:55:59;;;;;;;;;;;;;;;25.20;46.93;101099.25;5139913;27;19931;-60
2023/07/11 10:58:27;;;;;;;;;;;;;;;25.23;46.72;101100.56;5141868;27;19923;-60
2023/07/11 11:01:09;;;;;;;;;;;;;;;25.25;46.59;101090.84;5129888;27;20328;-60
2023/07/11 11:03:38;;;;;;;;;;;;;;;25.24;46.55;101099.44;5134854;27;20041;-60
2023/07/11 11:06:17;;;;;;;;;;;;;;;25.24;46.35;101089.22;5142822;27;19933;-60
2023/07/11 11:08:49;;;;;;;;;;;;;;;25.27;46.53;101094.09;5148966;27;19930;-60
2023/07/11 11:11:24;;;;;;;;;;;;;;;25.30;46.18;101087.97;5139461;27;19949;-60
2023/07/11 11:13:58;;;;;;;;;;;;;;;25.32;45.94;101090.41;5143999;27;19919;-60
2023/07/11 11:16:29;;;;;;;;;;;;;;;25.37;46.01;101078.47;5138256;27;19923;-60
2023/07/11 11:19:03;;;;;;;;;;;;;;;25.39;45.74;101073.47;5141067;27;19919;-60
2023/07/11 11:21:36;;;;;;;;;;;;;;;25.40;45.54;101078.66;5141824;27;19924;-60
2023/07/11 11:24:30;;;;;;;;;;;;;;;25.41;45.06;101074.75;5139787;27;19919;-60
2023/07/11 11:27:02;;;;;;;;;;;;;;;25.41;45.58;101063.75;5141651;27;19919;-60
2023/07/11 11:29:37;;;;;;;;;;;;;;;25.44;45.54;101065.88;5142520;27;19920;-60
2023/07/11 11:32:10;;;;;;;;;;;;;;;25.46;45.24;101057.31;5136350;27;19928;-60
2023/07/11 11:34:45;;;;;;;;;;;;;;;25.49;45.21;101062.19;5143916;27;20576;-60
2023/07/11 11:37:35;;;;;;;;;;;;;;;25.52;45.61;101056.84;5144734;27;19929;-60
2023/07/11 11:40:09;;;;;;;;;;;;;;;25.55;45.17;101055.41;5141670;27;20385;-60
2023/07/11 11:42:39;;;;;;;;;;;;;;;25.59;45.27;101040.69;5140086;27;20030;-59
2023/07/11 11:45:10;;;;;;;;;;;;;;;25.65;45.18;101041.38;5136848;27;19996;-59
2023/07/11 11:47:41;;;;;;;;;;;;;;;25.69;45.20;101030.56;5147230;27;19919;-58
2023/07/11 11:50:15;;;;;;;;;;;;;;;25.74;45.70;101033.16;5144584;27;19919;-59
2023/07/11 11:52:45;;;;;;;;;;;;;;;25.80;45.75;101034.63;5138622;27;19919;-59
2023/07/11 11:55:36;;;;;;;;;;;;;;;25.82;45.35;101027.69;5136576;27;19930;-59
2023/07/11 11:58:05;;;;;;;;;;;;;;;25.86;45.33;101022.34;5139484;27;19927;-59
2023/07/11 12:00:38;;;;;;;;;;;;;;;25.92;45.67;101032.88;5140640;27;19927;-59
2023/07/11 12:03:06;;;;;;;;;;;;;;;26.00;46.11;101028.53;5144043;27;19927;-60
2023/07/11 12:05:34;;;;;;;;;;;;;;;26.09;45.78;101021.06;5138664;27;19919;-60
2023/07/11 12:08:24;;;;;;;;;;;;;;;26.15;45.87;101027.22;5138038;27;20012;-60
2023/07/11 12:11:04;;;;;;;;;;;;;;;26.24;44.50;101026.09;5143618;27;19980;-61
2023/07/11 12:13:32;;;;;;;;;;;;;;;26.25;44.58;101016.69;5140358;27;19986;-61
2023/07/11 12:16:02;;;;;;;;;;;;;;;26.31;44.92;101011.84;5134883;27;19949;-61
2023/07/11 12:18:36;;;;;;;;;;;;;;;26.36;45.23;101011.72;5137552;27;19927;-61
2023/07/11 12:21:18;;;;;;;;;;;;;;;26.41;45.20;101013.50;5137685;27;19970;-61
2023/07/11 12:23:47;;;;;;;;;;;;;;;26.43;44.97;101005.72;5145591;27;19923;-61
2023/07/11 12:26:35;;;;;;;;;;;;;;;26.45;43.44;101009.78;5147236;27;19919;-58
2023/07/11 12:29:18;;;;;;;;;;;;;;;26.65;42.47;101000.03;5136690;27;19919;-60
2023/07/11 12:31:45;;;;;;;;;;;;;;;26.69;43.17;101001.00;5142189;27;20248;-60
2023/07/11 12:34:13;;;;;;;;;;;;;;;26.72;43.79;100999.53;5144805;27;19919;-59
2023/07/11 12:36:58;;;;;;;;;;;;;;;26.75;43.73;100996.94;5141297;27;19968;-60
2023/07/11 12:39:36;;;;;;;;;;;;;;;26.80;43.86;100985.72;5143837;27;19920;-59
2023/07/11 12:42:10;;;;;;;;;;;;;;;26.85;44.21;100987.50;5142805;27;19919;-59
2023/07/11 12:44:38;;;;;;;;;;;;;;;26.88;44.02;100987.66;5139739;27;19948;-59
2023/07/11 12:47:09;;;;;;;;;;;;;;;26.89;43.79;100982.94;5137019;27;19920;-59
2023/07/11 12:49:40;;;;;;;;;;;;;;;26.90;44.21;100982.63;4780803;27;10000432;-59